sensor_id;sensor_type;location;lat;lon;timestamp;temperature;humidity
19007;DHT22;9636;47.382;8.480;2023-05-07T00:00:05;21.70;99.90
19007;DHT22;9636;47.382;8.480;2023-05-07T00:02:33;21.70;99.90
19007;DHT22;9636;47.382;8.480;2023-05-07T00:05:00;21.70;99.90
19007;DHT22;9636;47.382;8.480;2023-05-07T00:07:29;21.60;99.90
19007;DHT22;9636;47.382;8.480;2023-05-07T00:09:55;21.60;99.90
19007;DHT22;9636;47.382;8.480;2023-05-07T00:12:22;21.60;99.90
19007;DHT22;9636;47.382;8.480;2023-05-07T00:14:49;21.50;99.90
19007;DHT22;9636;47.382;8.480;2023-05-07T00:17:16;21.50;99.90
19007;DHT22;9636;47.382;8.480;2023-05-07T00:19:42;21.50;99.90
19007;DHT22;9636;47.382;8.480;2023-05-07T00:22:09;21.50;99.90
19007;DHT22;9636;47.382;8.480;2023-05-07T00:24:37;21.40;99.90
19007;DHT22;9636;47.382;8.480;2023-05-07T00:27:04;21.40;99.90
19007;DHT22;9636;47.382;8.480;2023-05-07T00:29:31;21.40;99.90
19007;DHT22;9636;47.382;8.480;2023-05-07T00:31:58;21.40;99.90
19007;DHT22;9636;47.382;8.480;2023-05-07T00:34:24;21.40;99.90
19007;DHT22;9636;47.382;8.480;2023-05-07T00:36:51;21.30;99.90
19007;DHT22;9636;47.382;8.480;2023-05-07T00:39:18;21.30;99.90
19007;DHT22;9636;47.382;8.480;2023-05-07T00:41:46;21.20;99.90
19007;DHT22;9636;47.382;8.480;2023-05-07T00:44:13;21.20;99.90
19007;DHT22;9636;47.382;8.480;2023-05-07T00:46:41;21.20;99.90
19007;DHT22;9636;47.382;8.480;2023-05-07T00:49:08;21.20;99.90
19007;DHT22;9636;47.382;8.480;2023-05-07T00:51:35;21.10;99.90
19007;DHT22;9636;47.382;8.480;2023-05-07T00:54:02;21.10;99.90
19007;DHT22;9636;47.382;8.480;2023-05-07T00:56:29;21.10;99.90
19007;DHT22;9636;47.382;8.480;2023-05-07T00:58:57;21.10;99.90
19007;DHT22;9636;47.382;8.480;2023-05-07T01:01:24;21.00;99.90
19007;DHT22;9636;47.382;8.480;2023-05-07T01:03:52;21.00;99.90
19007;DHT22;9636;47.382;8.480;2023-05-07T01:06:20;21.00;99.90
19007;DHT22;9636;47.382;8.480;2023-05-07T01:08:47;20.90;99.90
19007;DHT22;9636;47.382;8.480;2023-05-07T01:11:16;20.90;99.90
19007;DHT22;9636;47.382;8.480;2023-05-07T01:13:45;20.90;99.90
19007;DHT22;9636;47.382;8.480;2023-05-07T01:16:13;20.90;99.90
19007;DHT22;9636;47.382;8.480;2023-05-07T01:18:40;20.90;99.90
19007;DHT22;9636;47.382;8.480;2023-05-07T01:21:08;20.80;99.90
19007;DHT22;9636;47.382;8.480;2023-05-07T01:23:39;20.80;99.90
19007;DHT22;9636;47.382;8.480;2023-05-07T01:26:06;20.80;99.90
19007;DHT22;9636;47.382;8.480;2023-05-07T01:28:33;20.70;99.90
19007;DHT22;9636;47.382;8.480;2023-05-07T01:31:01;20.70;99.90
19007;DHT22;9636;47.382;8.480;2023-05-07T01:33:30;20.70;99.90
19007;DHT22;9636;47.382;8.480;2023-05-07T01:35:59;20.70;99.90
19007;DHT22;9636;47.382;8.480;2023-05-07T01:38:28;20.70;99.90
19007;DHT22;9636;47.382;8.480;2023-05-07T01:40:59;20.60;99.90
19007;DHT22;9636;47.382;8.480;2023-05-07T01:43:26;20.60;99.90
19007;DHT22;9636;47.382;8.480;2023-05-07T01:45:53;20.60;99.90
19007;DHT22;9636;47.382;8.480;2023-05-07T01:48:20;20.50;99.90
19007;DHT22;9636;47.382;8.480;2023-05-07T01:50:48;20.50;99.90
19007;DHT22;9636;47.382;8.480;2023-05-07T01:53:15;20.60;99.90
19007;DHT22;9636;47.382;8.480;2023-05-07T01:55:42;20.50;99.90
19007;DHT22;9636;47.382;8.480;2023-05-07T01:58:10;20.50;99.90
19007;DHT22;9636;47.382;8.480;2023-05-07T02:00:37;20.50;99.90
19007;DHT22;9636;47.382;8.480;2023-05-07T02:03:04;20.40;99.90
19007;DHT22;9636;47.382;8.480;2023-05-07T02:05:30;20.40;99.90
19007;DHT22;9636;47.382;8.480;2023-05-07T02:07:57;20.40;99.90
19007;DHT22;9636;47.382;8.480;2023-05-07T02:10:24;20.40;99.90
19007;DHT22;9636;47.382;8.480;2023-05-07T02:12:51;20.30;99.90
19007;DHT22;9636;47.382;8.480;2023-05-07T02:15:19;20.30;99.90
19007;DHT22;9636;47.382;8.480;2023-05-07T02:17:59;20.30;99.90
19007;DHT22;9636;47.382;8.480;2023-05-07T02:20:26;20.30;99.90
19007;DHT22;9636;47.382;8.480;2023-05-07T02:22:53;20.20;99.90
19007;DHT22;9636;47.382;8.480;2023-05-07T02:25:20;20.20;99.90
19007;DHT22;9636;47.382;8.480;2023-05-07T02:27:47;20.20;99.90
19007;DHT22;9636;47.382;8.480;2023-05-07T02:30:14;20.20;99.90
19007;DHT22;9636;47.382;8.480;2023-05-07T02:32:42;20.20;99.90
19007;DHT22;9636;47.382;8.480;2023-05-07T02:35:09;20.10;99.90
19007;DHT22;9636;47.382;8.480;2023-05-07T02:37:36;20.10;99.90
19007;DHT22;9636;47.382;8.480;2023-05-07T02:40:04;20.10;99.90
19007;DHT22;9636;47.382;8.480;2023-05-07T02:42:31;20.10;99.90
19007;DHT22;9636;47.382;8.480;2023-05-07T02:44:58;20.10;99.90
19007;DHT22;9636;47.382;8.480;2023-05-07T02:47:25;20.00;99.90
19007;DHT22;9636;47.382;8.480;2023-05-07T02:49:54;20.00;99.90
19007;DHT22;9636;47.382;8.480;2023-05-07T02:52:21;20.00;99.90
19007;DHT22;9636;47.382;8.480;2023-05-07T02:54:48;19.90;99.90
19007;DHT22;9636;47.382;8.480;2023-05-07T02:57:15;19.90;99.90
19007;DHT22;9636;47.382;8.480;2023-05-07T02:59:42;19.90;99.90
19007;DHT22;9636;47.382;8.480;2023-05-07T03:02:09;19.90;99.90
19007;DHT22;9636;47.382;8.480;2023-05-07T03:04:36;19.90;99.90
19007;DHT22;9636;47.382;8.480;2023-05-07T03:07:04;19.80;99.90
19007;DHT22;9636;47.382;8.480;2023-05-07T03:09:31;19.80;99.90
19007;DHT22;9636;47.382;8.480;2023-05-07T03:11:58;19.80;99.90
19007;DHT22;9636;47.382;8.480;2023-05-07T03:14:25;19.80;99.90
19007;DHT22;9636;47.382;8.480;2023-05-07T03:16:51;19.70;99.90
19007;DHT22;9636;47.382;8.480;2023-05-07T03:19:18;19.70;99.90
19007;DHT22;9636;47.382;8.480;2023-05-07T03:21:45;19.70;99.90
19007;DHT22;9636;47.382;8.480;2023-05-07T03:24:13;19.70;99.90
19007;DHT22;9636;47.382;8.480;2023-05-07T03:26:40;19.60;99.90
19007;DHT22;9636;47.382;8.480;2023-05-07T03:29:07;19.60;99.90
19007;DHT22;9636;47.382;8.480;2023-05-07T03:31:33;19.60;99.90
19007;DHT22;9636;47.382;8.480;2023-05-07T03:34:01;19.60;99.90
19007;DHT22;9636;47.382;8.480;2023-05-07T03:36:27;19.60;99.90
19007;DHT22;9636;47.382;8.480;2023-05-07T03:38:54;19.60;99.90
19007;DHT22;9636;47.382;8.480;2023-05-07T03:41:22;19.50;99.90
19007;DHT22;9636;47.382;8.480;2023-05-07T03:43:49;19.50;99.90
19007;DHT22;9636;47.382;8.480;2023-05-07T03:46:16;19.50;99.90
19007;DHT22;9636;47.382;8.480;2023-05-07T03:48:43;19.40;99.90
19007;DHT22;9636;47.382;8.480;2023-05-07T03:51:09;19.40;99.90
19007;DHT22;9636;47.382;8.480;2023-05-07T03:53:36;19.40;99.90
19007;DHT22;9636;47.382;8.480;2023-05-07T03:56:03;19.40;99.90
19007;DHT22;9636;47.382;8.480;2023-05-07T03:58:32;19.40;99.90
19007;DHT22;9636;47.382;8.480;2023-05-07T04:00:59;19.30;99.90
19007;DHT22;9636;47.382;8.480;2023-05-07T04:03:26;19.40;99.90
19007;DHT22;9636;47.382;8.480;2023-05-07T04:05:53;19.30;99.90
19007;DHT22;9636;47.382;8.480;2023-05-07T04:08:20;19.30;99.90
19007;DHT22;9636;47.382;8.480;2023-05-07T04:10:46;19.30;99.90
19007;DHT22;9636;47.382;8.480;2023-05-07T04:13:13;19.30;99.90
19007;DHT22;9636;47.382;8.480;2023-05-07T04:15:41;19.20;99.90
19007;DHT22;9636;47.382;8.480;2023-05-07T04:18:08;19.30;99.90
19007;DHT22;9636;47.382;8.480;2023-05-07T04:20:35;19.30;99.90
19007;DHT22;9636;47.382;8.480;2023-05-07T04:23:02;19.20;99.90
19007;DHT22;9636;47.382;8.480;2023-05-07T04:25:29;19.20;99.90
19007;DHT22;9636;47.382;8.480;2023-05-07T04:27:56;19.20;99.90
19007;DHT22;9636;47.382;8.480;2023-05-07T04:30:23;19.20;99.90
19007;DHT22;9636;47.382;8.480;2023-05-07T04:32:51;19.20;99.90
19007;DHT22;9636;47.382;8.480;2023-05-07T04:35:18;19.20;99.90
19007;DHT22;9636;47.382;8.480;2023-05-07T04:37:45;19.20;99.90
19007;DHT22;9636;47.382;8.480;2023-05-07T04:40:12;19.20;99.90
19007;DHT22;9636;47.382;8.480;2023-05-07T04:42:39;19.20;99.90
19007;DHT22;9636;47.382;8.480;2023-05-07T04:45:07;19.30;99.90
19007;DHT22;9636;47.382;8.480;2023-05-07T04:47:35;19.30;99.90
19007;DHT22;9636;47.382;8.480;2023-05-07T04:50:04;19.30;99.90
19007;DHT22;9636;47.382;8.480;2023-05-07T04:52:31;19.30;99.90
19007;DHT22;9636;47.382;8.480;2023-05-07T04:54:59;19.30;99.90
19007;DHT22;9636;47.382;8.480;2023-05-07T04:57:27;19.30;99.90
19007;DHT22;9636;47.382;8.480;2023-05-07T04:59:54;19.30;99.90
19007;DHT22;9636;47.382;8.480;2023-05-07T05:02:21;19.30;99.90
19007;DHT22;9636;47.382;8.480;2023-05-07T05:04:47;19.40;99.90
19007;DHT22;9636;47.382;8.480;2023-05-07T05:07:16;19.40;99.90
19007;DHT22;9636;47.382;8.480;2023-05-07T05:09:42;19.40;99.90
19007;DHT22;9636;47.382;8.480;2023-05-07T05:12:10;19.40;99.90
19007;DHT22;9636;47.382;8.480;2023-05-07T05:14:37;19.40;99.90
19007;DHT22;9636;47.382;8.480;2023-05-07T05:17:03;19.50;99.90
19007;DHT22;9636;47.382;8.480;2023-05-07T05:19:30;19.50;99.90
19007;DHT22;9636;47.382;8.480;2023-05-07T05:21:57;19.60;99.90
19007;DHT22;9636;47.382;8.480;2023-05-07T05:24:25;19.60;99.90
19007;DHT22;9636;47.382;8.480;2023-05-07T05:26:53;19.60;99.90
19007;DHT22;9636;47.382;8.480;2023-05-07T05:29:20;19.60;99.90
19007;DHT22;9636;47.382;8.480;2023-05-07T05:31:47;19.70;99.90
19007;DHT22;9636;47.382;8.480;2023-05-07T05:34:14;19.70;99.90
19007;DHT22;9636;47.382;8.480;2023-05-07T05:36:41;19.80;99.90
19007;DHT22;9636;47.382;8.480;2023-05-07T05:39:07;19.80;99.90
19007;DHT22;9636;47.382;8.480;2023-05-07T05:41:36;19.80;99.90
19007;DHT22;9636;47.382;8.480;2023-05-07T05:44:03;19.80;99.90
19007;DHT22;9636;47.382;8.480;2023-05-07T05:46:29;19.90;99.90
19007;DHT22;9636;47.382;8.480;2023-05-07T05:48:56;19.90;99.90
19007;DHT22;9636;47.382;8.480;2023-05-07T05:51:23;19.90;99.90
19007;DHT22;9636;47.382;8.480;2023-05-07T05:53:50;19.90;99.90
19007;DHT22;9636;47.382;8.480;2023-05-07T05:56:17;20.00;99.90
19007;DHT22;9636;47.382;8.480;2023-05-07T05:58:45;20.00;99.90
19007;DHT22;9636;47.382;8.480;2023-05-07T06:01:12;20.10;99.90
19007;DHT22;9636;47.382;8.480;2023-05-07T06:03:39;20.10;99.90
19007;DHT22;9636;47.382;8.480;2023-05-07T06:06:06;20.10;99.90
19007;DHT22;9636;47.382;8.480;2023-05-07T06:08:33;20.20;99.90
19007;DHT22;9636;47.382;8.480;2023-05-07T06:11:01;20.30;99.90
19007;DHT22;9636;47.382;8.480;2023-05-07T06:13:28;20.30;99.90
19007;DHT22;9636;47.382;8.480;2023-05-07T06:15:56;20.40;99.90
19007;DHT22;9636;47.382;8.480;2023-05-07T06:18:23;20.50;99.90
19007;DHT22;9636;47.382;8.480;2023-05-07T06:20:51;20.60;99.90
19007;DHT22;9636;47.382;8.480;2023-05-07T06:23:17;20.60;99.90
19007;DHT22;9636;47.382;8.480;2023-05-07T06:25:48;20.70;99.90
19007;DHT22;9636;47.382;8.480;2023-05-07T06:28:15;20.80;99.90
19007;DHT22;9636;47.382;8.480;2023-05-07T06:30:42;20.80;99.90
19007;DHT22;9636;47.382;8.480;2023-05-07T06:33:10;21.00;99.90
19007;DHT22;9636;47.382;8.480;2023-05-07T06:35:37;21.10;99.90
19007;DHT22;9636;47.382;8.480;2023-05-07T06:38:03;21.20;99.90
19007;DHT22;9636;47.382;8.480;2023-05-07T06:40:30;21.30;99.90
19007;DHT22;9636;47.382;8.480;2023-05-07T06:42:57;21.40;99.90
19007;DHT22;9636;47.382;8.480;2023-05-07T06:45:24;21.50;99.90
19007;DHT22;9636;47.382;8.480;2023-05-07T06:47:51;21.60;99.90
19007;DHT22;9636;47.382;8.480;2023-05-07T06:50:19;21.70;99.90
19007;DHT22;9636;47.382;8.480;2023-05-07T06:52:46;21.80;99.90
19007;DHT22;9636;47.382;8.480;2023-05-07T06:55:13;21.90;99.90
19007;DHT22;9636;47.382;8.480;2023-05-07T06:57:40;22.10;99.90
19007;DHT22;9636;47.382;8.480;2023-05-07T07:00:08;22.20;99.90
19007;DHT22;9636;47.382;8.480;2023-05-07T07:02:36;22.40;99.90
19007;DHT22;9636;47.382;8.480;2023-05-07T07:05:03;22.60;99.90
19007;DHT22;9636;47.382;8.480;2023-05-07T07:07:31;22.60;99.90
19007;DHT22;9636;47.382;8.480;2023-05-07T07:09:58;22.70;99.90
19007;DHT22;9636;47.382;8.480;2023-05-07T07:12:25;22.80;99.90
19007;DHT22;9636;47.382;8.480;2023-05-07T07:14:52;22.90;99.90
19007;DHT22;9636;47.382;8.480;2023-05-07T07:17:18;23.10;99.90
19007;DHT22;9636;47.382;8.480;2023-05-07T07:19:45;23.20;99.90
19007;DHT22;9636;47.382;8.480;2023-05-07T07:22:12;23.50;99.80
19007;DHT22;9636;47.382;8.480;2023-05-07T07:24:40;23.70;99.40
19007;DHT22;9636;47.382;8.480;2023-05-07T07:27:07;23.90;98.90
19007;DHT22;9636;47.382;8.480;2023-05-07T07:29:33;24.20;98.60
19007;DHT22;9636;47.382;8.480;2023-05-07T07:32:00;24.40;98.50
19007;DHT22;9636;47.382;8.480;2023-05-07T07:34:27;24.50;98.40
19007;DHT22;9636;47.382;8.480;2023-05-07T07:36:54;24.70;98.50
19007;DHT22;9636;47.382;8.480;2023-05-07T07:39:21;24.80;98.00
19007;DHT22;9636;47.382;8.480;2023-05-07T07:41:49;25.10;97.80
19007;DHT22;9636;47.382;8.480;2023-05-07T07:44:16;25.30;97.70
19007;DHT22;9636;47.382;8.480;2023-05-07T07:46:43;25.50;97.60
19007;DHT22;9636;47.382;8.480;2023-05-07T07:49:10;25.50;97.30
19007;DHT22;9636;47.382;8.480;2023-05-07T07:51:36;25.50;98.10
19007;DHT22;9636;47.382;8.480;2023-05-07T07:54:03;25.40;98.40
19007;DHT22;9636;47.382;8.480;2023-05-07T07:56:31;25.20;98.70
19007;DHT22;9636;47.382;8.480;2023-05-07T07:59:00;25.20;99.00
19007;DHT22;9636;47.382;8.480;2023-05-07T08:01:29;25.20;99.50
19007;DHT22;9636;47.382;8.480;2023-05-07T08:03:56;25.10;99.50
19007;DHT22;9636;47.382;8.480;2023-05-07T08:06:24;25.20;99.10
19007;DHT22;9636;47.382;8.480;2023-05-07T08:08:51;25.20;99.30
19007;DHT22;9636;47.382;8.480;2023-05-07T08:11:18;25.30;99.50
19007;DHT22;9636;47.382;8.480;2023-05-07T08:13:46;25.30;99.10
19007;DHT22;9636;47.382;8.480;2023-05-07T08:16:14;25.30;99.70
19007;DHT22;9636;47.382;8.480;2023-05-07T08:18:41;25.30;99.50
19007;DHT22;9636;47.382;8.480;2023-05-07T08:21:08;25.40;99.20
19007;DHT22;9636;47.382;8.480;2023-05-07T08:23:35;25.40;99.30
19007;DHT22;9636;47.382;8.480;2023-05-07T08:26:02;25.40;99.00
19007;DHT22;9636;47.382;8.480;2023-05-07T08:28:28;25.40;99.10
19007;DHT22;9636;47.382;8.480;2023-05-07T08:30:55;25.40;98.90
19007;DHT22;9636;47.382;8.480;2023-05-07T08:33:26;25.50;99.10
19007;DHT22;9636;47.382;8.480;2023-05-07T08:35:54;25.50;99.20
19007;DHT22;9636;47.382;8.480;2023-05-07T08:38:20;25.50;98.90
19007;DHT22;9636;47.382;8.480;2023-05-07T08:40:47;25.50;98.70
19007;DHT22;9636;47.382;8.480;2023-05-07T08:43:14;25.60;98.80
19007;DHT22;9636;47.382;8.480;2023-05-07T08:45:41;25.60;99.10
19007;DHT22;9636;47.382;8.480;2023-05-07T08:48:09;25.60;98.70
19007;DHT22;9636;47.382;8.480;2023-05-07T08:50:42;25.60;98.60
19007;DHT22;9636;47.382;8.480;2023-05-07T08:53:09;25.60;98.80
19007;DHT22;9636;47.382;8.480;2023-05-07T08:55:36;25.60;98.60
19007;DHT22;9636;47.382;8.480;2023-05-07T08:58:03;25.70;98.60
19007;DHT22;9636;47.382;8.480;2023-05-07T09:00:30;25.70;98.50
19007;DHT22;9636;47.382;8.480;2023-05-07T09:02:57;25.70;98.50
19007;DHT22;9636;47.382;8.480;2023-05-07T09:08:03;25.70;98.80
19007;DHT22;9636;47.382;8.480;2023-05-07T09:10:33;25.70;98.60
19007;DHT22;9636;47.382;8.480;2023-05-07T09:12:59;25.70;98.80
19007;DHT22;9636;47.382;8.480;2023-05-07T09:15:27;26.50;97.50
19007;DHT22;9636;47.382;8.480;2023-05-07T09:17:54;27.60;95.80
19007;DHT22;9636;47.382;8.480;2023-05-07T09:20:26;27.50;95.80
19007;DHT22;9636;47.382;8.480;2023-05-07T09:22:55;27.20;96.20
19007;DHT22;9636;47.382;8.480;2023-05-07T09:25:29;26.90;96.70
19007;DHT22;9636;47.382;8.480;2023-05-07T09:27:57;26.80;97.00
19007;DHT22;9636;47.382;8.480;2023-05-07T09:30:27;26.70;97.40
19007;DHT22;9636;47.382;8.480;2023-05-07T09:32:55;26.70;97.30
19007;DHT22;9636;47.382;8.480;2023-05-07T09:35:21;26.60;97.10
19007;DHT22;9636;47.382;8.480;2023-05-07T09:37:49;26.60;97.40
19007;DHT22;9636;47.382;8.480;2023-05-07T09:40:21;26.60;97.50
19007;DHT22;9636;47.382;8.480;2023-05-07T09:42:50;26.60;97.50
19007;DHT22;9636;47.382;8.480;2023-05-07T09:45:21;26.30;91.30
19007;DHT22;9636;47.382;8.480;2023-05-07T09:47:49;26.00;91.40
19007;DHT22;9636;47.382;8.480;2023-05-07T09:50:22;25.70;92.50
19007;DHT22;9636;47.382;8.480;2023-05-07T09:52:51;25.60;99.40
19007;DHT22;9636;47.382;8.480;2023-05-07T09:55:18;25.70;99.90
19007;DHT22;9636;47.382;8.480;2023-05-07T09:57:46;25.70;99.90
19007;DHT22;9636;47.382;8.480;2023-05-07T10:00:15;25.70;99.90
19007;DHT22;9636;47.382;8.480;2023-05-07T10:02:44;25.70;99.90
19007;DHT22;9636;47.382;8.480;2023-05-07T10:05:14;25.70;99.90
19007;DHT22;9636;47.382;8.480;2023-05-07T10:07:41;25.80;99.90
19007;DHT22;9636;47.382;8.480;2023-05-07T10:10:09;25.80;99.90
19007;DHT22;9636;47.382;8.480;2023-05-07T10:12:36;25.80;99.90
19007;DHT22;9636;47.382;8.480;2023-05-07T10:15:07;25.80;99.90
19007;DHT22;9636;47.382;8.480;2023-05-07T10:17:37;25.80;99.90
19007;DHT22;9636;47.382;8.480;2023-05-07T10:20:04;25.80;99.90
19007;DHT22;9636;47.382;8.480;2023-05-07T10:22:37;25.80;99.90
19007;DHT22;9636;47.382;8.480;2023-05-07T10:25:08;26.00;99.90
19007;DHT22;9636;47.382;8.480;2023-05-07T10:27:36;26.20;99.90
19007;DHT22;9636;47.382;8.480;2023-05-07T10:30:11;26.30;99.90
19007;DHT22;9636;47.382;8.480;2023-05-07T10:32:43;26.50;99.90
19007;DHT22;9636;47.382;8.480;2023-05-07T10:35:17;26.60;99.90
19007;DHT22;9636;47.382;8.480;2023-05-07T10:37:45;26.70;99.90
19007;DHT22;9636;47.382;8.480;2023-05-07T10:40:13;26.70;99.90
19007;DHT22;9636;47.382;8.480;2023-05-07T10:42:53;26.70;99.90
19007;DHT22;9636;47.382;8.480;2023-05-07T10:45:21;26.80;99.90
19007;DHT22;9636;47.382;8.480;2023-05-07T10:48:10;26.80;99.90
19007;DHT22;9636;47.382;8.480;2023-05-07T10:50:37;26.90;99.90
19007;DHT22;9636;47.382;8.480;2023-05-07T10:53:25;26.90;99.90
19007;DHT22;9636;47.382;8.480;2023-05-07T10:56:26;26.80;99.90
19007;DHT22;9636;47.382;8.480;2023-05-07T11:01:52;26.20;97.60
19007;DHT22;9636;47.382;8.480;2023-05-07T11:04:20;26.00;97.90
19007;DHT22;9636;47.382;8.480;2023-05-07T11:10:08;25.80;98.30
19007;DHT22;9636;47.382;8.480;2023-05-07T11:13:02;25.70;99.00
19007;DHT22;9636;47.382;8.480;2023-05-07T11:15:42;25.70;99.20
19007;DHT22;9636;47.382;8.480;2023-05-07T11:18:10;25.80;98.60
19007;DHT22;9636;47.382;8.480;2023-05-07T11:20:50;25.90;96.30
19007;DHT22;9636;47.382;8.480;2023-05-07T11:26:47;26.10;99.90
19007;DHT22;9636;47.382;8.480;2023-05-07T11:29:15;26.00;99.90
19007;DHT22;9636;47.382;8.480;2023-05-07T11:31:42;25.90;99.90
19007;DHT22;9636;47.382;8.480;2023-05-07T11:34:11;25.80;99.90
19007;DHT22;9636;47.382;8.480;2023-05-07T11:36:43;25.80;99.90
19007;DHT22;9636;47.382;8.480;2023-05-07T11:39:29;25.70;99.90
19007;DHT22;9636;47.382;8.480;2023-05-07T11:41:57;25.80;99.90
19007;DHT22;9636;47.382;8.480;2023-05-07T11:44:24;25.80;99.90
19007;DHT22;9636;47.382;8.480;2023-05-07T11:46:50;25.80;99.90
19007;DHT22;9636;47.382;8.480;2023-05-07T11:49:18;25.80;99.90
19007;DHT22;9636;47.382;8.480;2023-05-07T11:51:46;25.80;99.90
19007;DHT22;9636;47.382;8.480;2023-05-07T11:54:16;25.80;99.90
19007;DHT22;9636;47.382;8.480;2023-05-07T11:56:44;25.70;99.90
19007;DHT22;9636;47.382;8.480;2023-05-07T11:59:11;25.70;99.50
19007;DHT22;9636;47.382;8.480;2023-05-07T12:01:38;25.70;99.90
19007;DHT22;9636;47.382;8.480;2023-05-07T12:04:05;25.70;99.90
19007;DHT22;9636;47.382;8.480;2023-05-07T12:06:36;25.70;99.90
19007;DHT22;9636;47.382;8.480;2023-05-07T12:09:04;25.70;99.90
19007;DHT22;9636;47.382;8.480;2023-05-07T12:11:36;25.60;99.90
19007;DHT22;9636;47.382;8.480;2023-05-07T12:14:05;25.60;99.90
19007;DHT22;9636;47.382;8.480;2023-05-07T12:16:32;25.60;99.90
19007;DHT22;9636;47.382;8.480;2023-05-07T12:18:59;25.50;99.90
19007;DHT22;9636;47.382;8.480;2023-05-07T12:21:26;25.60;99.90
19007;DHT22;9636;47.382;8.480;2023-05-07T12:23:53;25.50;99.90
19007;DHT22;9636;47.382;8.480;2023-05-07T12:26:22;25.50;99.90
19007;DHT22;9636;47.382;8.480;2023-05-07T12:28:50;25.50;99.90
19007;DHT22;9636;47.382;8.480;2023-05-07T12:31:17;25.50;99.90
19007;DHT22;9636;47.382;8.480;2023-05-07T12:33:44;25.60;99.90
19007;DHT22;9636;47.382;8.480;2023-05-07T12:36:13;25.60;99.90
19007;DHT22;9636;47.382;8.480;2023-05-07T12:38:40;25.60;99.90
19007;DHT22;9636;47.382;8.480;2023-05-07T12:41:08;25.50;99.90
19007;DHT22;9636;47.382;8.480;2023-05-07T12:43:36;25.60;99.90
19007;DHT22;9636;47.382;8.480;2023-05-07T12:46:05;25.50;99.90
19007;DHT22;9636;47.382;8.480;2023-05-07T12:48:32;25.50;99.90
19007;DHT22;9636;47.382;8.480;2023-05-07T12:51:00;25.50;99.90
19007;DHT22;9636;47.382;8.480;2023-05-07T12:53:28;25.50;99.90
19007;DHT22;9636;47.382;8.480;2023-05-07T12:55:56;25.40;99.90
19007;DHT22;9636;47.382;8.480;2023-05-07T12:58:25;25.40;99.90
19007;DHT22;9636;47.382;8.480;2023-05-07T13:00:54;25.40;99.90
19007;DHT22;9636;47.382;8.480;2023-05-07T13:03:25;25.40;99.90
19007;DHT22;9636;47.382;8.480;2023-05-07T13:05:52;25.40;99.90
19007;DHT22;9636;47.382;8.480;2023-05-07T13:08:24;25.40;99.90
19007;DHT22;9636;47.382;8.480;2023-05-07T13:10:51;25.40;99.90
19007;DHT22;9636;47.382;8.480;2023-05-07T13:13:18;25.40;99.90
19007;DHT22;9636;47.382;8.480;2023-05-07T13:15:45;25.40;99.90
19007;DHT22;9636;47.382;8.480;2023-05-07T13:18:14;25.40;99.90
19007;DHT22;9636;47.382;8.480;2023-05-07T13:20:40;25.40;99.50
19007;DHT22;9636;47.382;8.480;2023-05-07T13:23:07;25.40;99.10
19007;DHT22;9636;47.382;8.480;2023-05-07T13:25:34;25.40;99.40
19007;DHT22;9636;47.382;8.480;2023-05-07T13:28:01;25.40;99.10
19007;DHT22;9636;47.382;8.480;2023-05-07T13:30:28;25.40;98.80
19007;DHT22;9636;47.382;8.480;2023-05-07T13:32:55;25.40;98.60
19007;DHT22;9636;47.382;8.480;2023-05-07T13:35:24;25.40;98.30
19007;DHT22;9636;47.382;8.480;2023-05-07T13:37:51;25.40;98.50
19007;DHT22;9636;47.382;8.480;2023-05-07T13:40:18;25.40;98.30
19007;DHT22;9636;47.382;8.480;2023-05-07T13:42:45;25.40;98.60
19007;DHT22;9636;47.382;8.480;2023-05-07T13:45:12;25.40;98.00
19007;DHT22;9636;47.382;8.480;2023-05-07T13:47:40;25.40;98.20
19007;DHT22;9636;47.382;8.480;2023-05-07T13:50:12;25.30;98.50
19007;DHT22;9636;47.382;8.480;2023-05-07T13:52:42;25.30;99.20
19007;DHT22;9636;47.382;8.480;2023-05-07T13:55:13;25.20;99.30
19007;DHT22;9636;47.382;8.480;2023-05-07T13:57:39;25.20;98.30
19007;DHT22;9636;47.382;8.480;2023-05-07T14:00:07;25.00;95.10
19007;DHT22;9636;47.382;8.480;2023-05-07T14:02:34;24.90;95.30
19007;DHT22;9636;47.382;8.480;2023-05-07T14:05:01;24.90;94.80
19007;DHT22;9636;47.382;8.480;2023-05-07T14:07:28;25.00;96.20
19007;DHT22;9636;47.382;8.480;2023-05-07T14:09:57;25.00;96.60
19007;DHT22;9636;47.382;8.480;2023-05-07T14:12:24;25.00;96.30
19007;DHT22;9636;47.382;8.480;2023-05-07T14:14:50;24.90;94.90
19007;DHT22;9636;47.382;8.480;2023-05-07T14:17:18;24.80;96.90
19007;DHT22;9636;47.382;8.480;2023-05-07T14:19:45;25.00;97.60
19007;DHT22;9636;47.382;8.480;2023-05-07T14:22:13;25.20;96.80
19007;DHT22;9636;47.382;8.480;2023-05-07T14:24:40;25.20;96.80
19007;DHT22;9636;47.382;8.480;2023-05-07T14:27:08;25.20;96.30
19007;DHT22;9636;47.382;8.480;2023-05-07T14:29:35;25.20;96.50
19007;DHT22;9636;47.382;8.480;2023-05-07T14:32:02;25.20;96.10
19007;DHT22;9636;47.382;8.480;2023-05-07T14:34:29;25.20;96.10
19007;DHT22;9636;47.382;8.480;2023-05-07T14:36:56;25.20;96.40
19007;DHT22;9636;47.382;8.480;2023-05-07T14:39:23;25.10;96.60
19007;DHT22;9636;47.382;8.480;2023-05-07T14:41:50;25.10;96.60
19007;DHT22;9636;47.382;8.480;2023-05-07T14:44:21;25.10;96.30
19007;DHT22;9636;47.382;8.480;2023-05-07T14:46:48;25.10;96.60
19007;DHT22;9636;47.382;8.480;2023-05-07T14:49:15;25.10;96.80
19007;DHT22;9636;47.382;8.480;2023-05-07T14:51:43;25.10;96.80
19007;DHT22;9636;47.382;8.480;2023-05-07T14:54:10;25.10;97.20
19007;DHT22;9636;47.382;8.480;2023-05-07T14:56:37;25.10;96.90
19007;DHT22;9636;47.382;8.480;2023-05-07T14:59:04;25.00;96.80
19007;DHT22;9636;47.382;8.480;2023-05-07T15:01:33;25.00;97.10
19007;DHT22;9636;47.382;8.480;2023-05-07T15:04:00;25.00;97.20
19007;DHT22;9636;47.382;8.480;2023-05-07T15:06:27;25.00;97.10
19007;DHT22;9636;47.382;8.480;2023-05-07T15:08:54;25.00;97.20
19007;DHT22;9636;47.382;8.480;2023-05-07T15:11:22;25.00;97.30
19007;DHT22;9636;47.382;8.480;2023-05-07T15:13:49;25.00;97.50
19007;DHT22;9636;47.382;8.480;2023-05-07T15:16:16;24.90;97.60
19007;DHT22;9636;47.382;8.480;2023-05-07T15:18:44;24.90;97.40
19007;DHT22;9636;47.382;8.480;2023-05-07T15:21:11;24.90;97.10
19007;DHT22;9636;47.382;8.480;2023-05-07T15:23:38;24.80;97.10
19007;DHT22;9636;47.382;8.480;2023-05-07T15:26:06;24.80;97.30
19007;DHT22;9636;47.382;8.480;2023-05-07T15:28:34;24.80;97.20
19007;DHT22;9636;47.382;8.480;2023-05-07T15:31:00;24.80;97.20
19007;DHT22;9636;47.382;8.480;2023-05-07T15:33:27;24.80;97.20
19007;DHT22;9636;47.382;8.480;2023-05-07T15:35:55;24.80;97.20
19007;DHT22;9636;47.382;8.480;2023-05-07T15:38:24;24.80;97.10
19007;DHT22;9636;47.382;8.480;2023-05-07T15:40:51;24.70;96.80
19007;DHT22;9636;47.382;8.480;2023-05-07T15:43:18;24.70;97.40
19007;DHT22;9636;47.382;8.480;2023-05-07T15:45:46;24.70;97.20
19007;DHT22;9636;47.382;8.480;2023-05-07T15:48:12;24.70;97.50
19007;DHT22;9636;47.382;8.480;2023-05-07T15:50:39;24.70;97.60
19007;DHT22;9636;47.382;8.480;2023-05-07T15:53:07;24.70;97.50
19007;DHT22;9636;47.382;8.480;2023-05-07T15:55:35;24.70;98.10
19007;DHT22;9636;47.382;8.480;2023-05-07T15:58:01;24.70;98.70
19007;DHT22;9636;47.382;8.480;2023-05-07T16:00:29;24.70;98.30